Time;durP1;ratioP1;P1;durP2;ratioP2;P2;SDS_P1;SDS_P2;PMS_P1;PMS_P2;Temp;Humidity;BMP_temperature;BMP_pressure;BME280_temperature;BME280_humidity;BME280_pressure;Samples;Min_cycle;Max_cycle;Signal;HPM_P1;HPM_P2
2023/07/23 00:01:10;;;;;;;5.28;2.30;;;;;;;21.33;52.18;99200.75;4390490;32;33948;-85
2023/07/23 00:03:38;;;;;;;7.03;2.53;;;;;;;21.49;52.27;99200.28;4376607;32;34305;-85
2023/07/23 00:06:06;;;;;;;4.85;2.72;;;;;;;21.43;52.28;99203.09;4390248;32;34372;-85
2023/07/23 00:08:33;;;;;;;5.03;2.78;;;;;;;21.42;52.64;99206.66;4390403;32;33449;-85
2023/07/23 00:11:01;;;;;;;7.30;2.85;;;;;;;21.10;53.63;99203.16;4390470;32;34617;-85
2023/07/23 00:13:28;;;;;;;6.20;2.55;;;;;;;21.16;53.31;99200.34;4390266;32;34273;-85
2023/07/23 00:15:56;;;;;;;4.95;2.37;;;;;;;21.22;53.30;99204.59;4390390;32;34637;-85
2023/07/23 00:18:24;;;;;;;5.10;2.28;;;;;;;21.42;52.21;99202.22;4390487;32;34888;-86
2023/07/23 00:20:51;;;;;;;5.43;2.67;;;;;;;21.35;52.27;99209.44;4390132;32;34803;-86
2023/07/23 00:23:19;;;;;;;5.03;2.30;;;;;;;21.19;53.07;99207.31;4390480;32;34029;-85
2023/07/23 00:25:46;;;;;;;6.20;2.55;;;;;;;21.31;53.13;99214.84;4376305;32;32867;-85
2023/07/23 00:28:14;;;;;;;4.93;2.60;;;;;;;21.42;52.66;99211.91;4390225;32;34690;-85
2023/07/23 00:30:41;;;;;;;5.40;2.58;;;;;;;21.48;52.29;99212.59;4373492;32;34926;-85
2023/07/23 00:33:09;;;;;;;6.10;2.45;;;;;;;21.56;52.04;99210.59;4375182;32;34885;-85
2023/07/23 00:35:37;;;;;;;6.18;2.37;;;;;;;21.41;52.36;99221.59;4374604;32;33781;-85
2023/07/23 00:38:05;;;;;;;5.50;2.70;;;;;;;21.38;52.32;99213.78;4373977;32;34061;-86
2023/07/23 00:40:33;;;;;;;8.93;2.67;;;;;;;21.23;52.56;99212.44;4390111;32;35062;-85
2023/07/23 00:43:01;;;;;;;7.20;3.10;;;;;;;21.17;52.91;99214.38;4390237;32;34228;-85
2023/07/23 00:45:28;;;;;;;7.37;2.70;;;;;;;21.06;53.28;99209.41;4390024;32;34399;-85
2023/07/23 00:47:56;;;;;;;5.22;2.62;;;;;;;21.29;52.36;99207.00;4375923;32;33674;-86
2023/07/23 00:50:29;;;;;;;4.43;2.42;;;;;;;21.12;52.54;99206.63;4376268;32;34809;-85
2023/07/23 00:52:57;;;;;;;6.07;2.65;;;;;;;21.19;52.68;99210.81;4377039;32;33786;-85
2023/07/23 00:55:24;;;;;;;5.57;2.37;;;;;;;21.20;52.80;99201.13;4389987;32;33586;-85
2023/07/23 00:57:52;;;;;;;5.03;2.67;;;;;;;21.28;52.35;99204.38;4375765;32;33973;-85
2023/07/23 01:00:20;;;;;;;5.60;2.50;;;;;;;21.29;52.78;99211.38;4389871;32;34160;-85
2023/07/23 01:02:47;;;;;;;5.53;2.53;;;;;;;21.10;53.47;99211.06;4371209;32;164518;-85
2023/07/23 01:05:15;;;;;;;6.00;2.78;;;;;;;21.29;53.03;99212.25;4389825;32;34168;-85
2023/07/23 01:07:44;;;;;;;5.57;2.87;;;;;;;21.13;53.29;99208.34;4389395;32;34045;-85
2023/07/23 01:10:11;;;;;;;4.47;2.40;;;;;;;21.40;52.68;99209.31;4376245;32;33715;-85
2023/07/23 01:12:39;;;;;;;5.72;2.67;;;;;;;21.19;53.26;99208.16;4389543;32;33924;-85
2023/07/23 01:15:07;;;;;;;4.65;2.53;;;;;;;21.28;52.97;99215.78;4376274;32;34372;-85
2023/07/23 01:17:36;;;;;;;6.05;2.35;;;;;;;21.08;53.67;99212.88;4389119;32;34057;-85
2023/07/23 01:20:07;;;;;;;5.03;2.42;;;;;;;21.07;53.74;99217.31;4389459;32;35120;-85
2023/07/23 01:22:36;;;;;;;5.68;2.78;;;;;;;20.87;54.33;99222.25;4375873;32;34913;-85
2023/07/23 01:25:04;;;;;;;5.32;2.60;;;;;;;21.16;54.25;99218.78;4375670;32;33653;-86
2023/07/23 01:27:32;;;;;;;6.53;2.97;;;;;;;21.25;53.93;99215.91;4379560;32;32952;-85
2023/07/23 01:30:00;;;;;;;6.05;3.20;;;;;;;21.20;54.12;99220.44;4389328;32;34262;-85
2023/07/23 01:32:28;;;;;;;5.05;2.53;;;;;;;21.05;55.04;99219.09;4387935;32;33855;-84
2023/07/23 01:34:56;;;;;;;4.20;2.33;;;;;;;21.11;55.07;99212.81;4389214;32;34664;-85
2023/07/23 01:37:24;;;;;;;6.18;2.87;;;;;;;21.15;55.07;99219.72;4375214;32;33095;-85
2023/07/23 01:39:52;;;;;;;6.22;2.72;;;;;;;21.30;54.55;99221.03;4391456;32;34287;-85
2023/07/23 01:42:20;;;;;;;5.75;3.05;;;;;;;21.23;54.86;99208.94;4377875;32;34250;-85
2023/07/23 01:44:47;;;;;;;6.62;2.87;;;;;;;21.25;55.14;99213.28;4377711;32;33707;-85
2023/07/23 01:47:15;;;;;;;5.53;3.20;;;;;;;21.26;55.26;99212.34;4377074;32;33881;-85
2023/07/23 01:49:42;;;;;;;6.00;2.78;;;;;;;21.38;54.79;99222.56;4391437;32;33725;-86
2023/07/23 01:52:10;;;;;;;6.50;3.00;;;;;;;21.33;54.90;99219.19;4391338;32;35071;-85
2023/07/23 01:54:38;;;;;;;5.07;2.78;;;;;;;21.06;55.52;99219.97;4391155;32;34335;-85
2023/07/23 01:57:05;;;;;;;8.15;3.00;;;;;;;21.08;55.72;99218.16;4390852;32;33783;-85
2023/07/23 01:59:33;;;;;;;7.03;2.97;;;;;;;21.19;55.39;99221.34;4378000;32;33922;-84
2023/07/23 02:02:04;;;;;;;5.00;2.80;;;;;;;21.24;55.23;99219.44;4391547;32;34038;-85
2023/07/23 02:04:32;;;;;;;6.15;3.05;;;;;;;21.18;55.37;99216.13;4391487;32;33650;-86
2023/07/23 02:06:59;;;;;;;4.93;2.40;;;;;;;21.23;55.28;99211.56;4377281;32;34670;-85
2023/07/23 02:09:27;;;;;;;6.37;2.78;;;;;;;21.36;54.81;99220.88;4377434;32;34577;-85
2023/07/23 02:11:54;;;;;;;8.90;3.10;;;;;;;21.32;54.68;99214.78;4365511;32;33895;-85
2023/07/23 02:14:22;;;;;;;5.68;3.12;;;;;;;21.30;54.81;99218.41;4391190;32;33749;-85
2023/07/23 02:16:49;;;;;;;4.90;2.78;;;;;;;21.03;55.35;99220.94;4377068;32;33930;-85
2023/07/23 02:19:17;;;;;;;6.30;2.97;;;;;;;21.07;55.21;99217.31;4377733;32;34819;-85
2023/07/23 02:21:45;;;;;;;5.80;3.15;;;;;;;21.03;55.44;99226.22;4391145;32;35082;-85
2023/07/23 02:24:12;;;;;;;5.70;2.80;;;;;;;21.16;54.88;99226.69;4391126;32;33700;-86
2023/07/23 02:26:40;;;;;;;6.20;2.62;;;;;;;21.09;55.05;99225.16;4377260;32;33844;-84
2023/07/23 02:29:08;;;;;;;7.45;2.90;;;;;;;20.83;55.64;99224.13;4391271;32;33988;-84
2023/07/23 02:31:35;;;;;;;6.35;3.25;;;;;;;20.94;55.43;99225.59;4390737;32;34208;-83
2023/07/23 02:34:03;;;;;;;6.07;3.08;;;;;;;20.87;55.65;99231.06;4391102;32;34692;-85
2023/07/23 02:36:31;;;;;;;5.80;2.83;;;;;;;21.02;55.11;99228.88;4377293;32;33884;-85
2023/07/23 02:38:59;;;;;;;5.45;2.95;;;;;;;20.83;55.82;99239.06;4390665;32;33860;-85
2023/07/23 02:41:26;;;;;;;5.35;2.90;;;;;;;21.01;55.57;99242.97;4390992;32;34930;-85
2023/07/23 02:43:54;;;;;;;5.18;2.97;;;;;;;20.96;55.60;99239.59;4390958;32;33713;-85
2023/07/23 02:46:22;;;;;;;5.53;2.97;;;;;;;21.08;55.35;99239.25;4377151;32;33649;-85
2023/07/23 02:48:49;;;;;;;6.80;3.00;;;;;;;21.11;55.21;99240.03;4390407;32;34933;-85
2023/07/23 02:51:18;;;;;;;6.37;3.45;;;;;;;21.05;55.17;99229.66;4377332;32;35753;-85
2023/07/23 02:53:45;;;;;;;6.35;3.00;;;;;;;21.12;55.21;99235.62;4391243;32;33733;-85
2023/07/23 02:56:13;;;;;;;5.50;3.08;;;;;;;21.03;55.53;99243.81;4390751;32;34746;-83
2023/07/23 02:58:40;;;;;;;7.30;3.45;;;;;;;21.09;55.46;99235.69;4371966;32;34193;-85
2023/07/23 03:01:09;;;;;;;6.68;3.05;;;;;;;21.01;55.68;99241.19;4374866;32;33889;-85
2023/07/23 03:03:36;;;;;;;6.18;3.20;;;;;;;20.94;55.73;99237.00;4384577;32;34823;-85
2023/07/23 03:06:08;;;;;;;6.53;3.28;;;;;;;20.85;56.19;99230.22;4377412;32;34152;-85
2023/07/23 03:08:36;;;;;;;9.35;3.30;;;;;;;20.71;57.07;99228.88;4364708;32;32740;-85
2023/07/23 03:11:05;;;;;;;6.37;3.47;;;;;;;20.63;57.17;99234.34;4391293;32;34435;-85
2023/07/23 03:13:33;;;;;;;6.78;3.47;;;;;;;20.78;56.80;99225.16;4376692;32;33702;-85
2023/07/23 03:16:01;;;;;;;5.82;3.10;;;;;;;20.68;57.11;99234.22;4390671;32;33491;-83
2023/07/23 03:18:28;;;;;;;6.70;3.75;;;;;;;20.74;56.71;99236.69;4376890;32;35045;-85
2023/07/23 03:20:56;;;;;;;7.65;3.97;;;;;;;20.64;56.98;99230.81;4390630;32;34197;-85
2023/07/23 03:23:24;;;;;;;6.12;3.30;;;;;;;20.55;57.79;99234.56;4390811;32;33857;-84
2023/07/23 03:25:51;;;;;;;7.22;3.30;;;;;;;20.69;57.22;99228.94;4391032;32;34059;-85
2023/07/23 03:28:19;;;;;;;9.07;3.30;;;;;;;20.64;57.60;99236.94;4390098;32;34227;-85
2023/07/23 03:30:49;;;;;;;7.50;3.10;;;;;;;20.61;57.66;99230.91;4390766;32;34243;-85
2023/07/23 03:33:16;;;;;;;6.15;3.53;;;;;;;20.60;57.82;99231.78;4390564;32;34443;-85
2023/07/23 03:35:45;;;;;;;6.55;3.30;;;;;;;20.45;58.42;99235.66;4390446;32;34631;-85
2023/07/23 03:38:12;;;;;;;7.05;3.35;;;;;;;20.51;58.37;99238.19;4390156;32;33851;-84
2023/07/23 03:40:40;;;;;;;6.07;3.40;;;;;;;20.55;58.25;99229.28;4390437;32;34892;-85
2023/07/23 03:43:07;;;;;;;6.72;4.10;;;;;;;20.62;58.13;99237.91;4376658;32;33668;-85
2023/07/23 03:45:35;;;;;;;5.80;3.45;;;;;;;20.65;58.04;99241.31;4390833;32;33658;-85
2023/07/23 03:48:02;;;;;;;6.05;3.55;;;;;;;20.59;58.46;99230.06;4390195;32;33642;-84
2023/07/23 03:50:30;;;;;;;5.50;3.00;;;;;;;20.67;58.28;99237.78;4376636;32;33590;-85
2023/07/23 03:52:58;;;;;;;6.57;3.40;;;;;;;20.71;58.09;99224.47;4390802;32;34275;-84
2023/07/23 03:55:25;;;;;;;7.55;3.95;;;;;;;20.55;58.62;99228.44;4377128;32;34780;-84
2023/07/23 03:57:53;;;;;;;6.72;3.67;;;;;;;20.62;58.53;99230.00;4360907;32;33517;-85
2023/07/23 04:00:20;;;;;;;6.95;3.20;;;;;;;20.66;58.44;99223.75;4374900;32;35372;-85
2023/07/23 04:02:48;;;;;;;7.55;3.28;;;;;;;20.71;58.29;99234.16;4374217;32;34197;-85
2023/07/23 04:05:16;;;;;;;5.62;3.08;;;;;;;20.78;57.95;99230.44;4374199;32;33852;-85
2023/07/23 04:07:43;;;;;;;6.70;3.25;;;;;;;20.81;58.23;99230.34;4380266;32;34175;-84
2023/07/23 04:10:11;;;;;;;6.90;3.58;;;;;;;20.80;58.40;99236.53;4390727;32;33676;-84
2023/07/23 04:12:38;;;;;;;5.25;2.80;;;;;;;20.87;58.32;99224.91;4390059;32;34384;-84
2023/07/23 04:15:06;;;;;;;7.62;3.33;;;;;;;20.88;58.28;99222.25;4390420;32;34076;-84
2023/07/23 04:17:34;;;;;;;5.68;3.15;;;;;;;20.93;58.28;99227.38;4376038;32;33837;-83
2023/07/23 04:20:02;;;;;;;6.53;3.35;;;;;;;21.08;58.05;99224.28;4390330;32;33905;-84
2023/07/23 04:22:30;;;;;;;6.32;3.30;;;;;;;21.25;57.62;99225.56;4376905;32;33465;-85
2023/07/23 04:24:58;;;;;;;6.07;3.05;;;;;;;21.52;58.05;99229.19;4390354;32;33414;-85
2023/07/23 04:27:26;;;;;;;5.28;3.08;;;;;;;21.70;57.58;99239.16;4389867;32;34065;-84
2023/07/23 04:29:53;;;;;;;6.95;3.25;;;;;;;21.87;56.80;99231.56;4376647;32;33983;-84
2023/07/23 04:32:23;;;;;;;6.80;3.42;;;;;;;22.21;56.03;99232.28;4389954;32;33313;-84
2023/07/23 04:34:50;;;;;;;5.05;3.00;;;;;;;22.47;55.90;99234.03;4376628;32;34569;-84
2023/07/23 04:37:18;;;;;;;6.05;3.03;;;;;;;22.77;54.51;99237.38;4376195;32;34055;-85
2023/07/23 04:39:45;;;;;;;6.43;2.95;;;;;;;23.20;53.46;99233.19;4389967;32;34842;-84
2023/07/23 04:42:13;;;;;;;5.72;3.08;;;;;;;23.56;52.60;99236.19;4389821;32;33553;-85
2023/07/23 04:44:41;;;;;;;6.10;2.72;;;;;;;23.80;52.20;99239.69;4390014;32;33800;-85
2023/07/23 04:47:08;;;;;;;5.45;3.00;;;;;;;24.06;51.60;99236.00;4373299;32;33831;-85
2023/07/23 04:49:36;;;;;;;6.05;2.60;;;;;;;24.30;51.04;99231.44;4374973;32;34304;-84
2023/07/23 04:52:03;;;;;;;7.72;3.17;;;;;;;24.45;51.33;99237.91;4375082;32;33441;-85
2023/07/23 04:54:31;;;;;;;8.02;2.87;;;;;;;24.54;50.93;99234.88;4373390;32;34882;-84
2023/07/23 04:56:59;;;;;;;7.28;3.08;;;;;;;24.40;50.84;99245.22;4384138;32;33264;-84
2023/07/23 04:59:26;;;;;;;5.45;2.75;;;;;;;24.37;51.09;99242.66;4389840;32;35071;-84
2023/07/23 05:01:54;;;;;;;5.68;2.70;;;;;;;24.32;51.12;99241.97;4389764;32;34677;-85
2023/07/23 05:04:21;;;;;;;7.75;3.08;;;;;;;24.12;51.44;99246.31;4376318;32;33619;-84
2023/07/23 05:06:51;;;;;;;6.62;2.75;;;;;;;24.50;51.19;99246.53;4389272;32;34263;-85
2023/07/23 05:09:18;;;;;;;5.57;2.70;;;;;;;24.93;50.22;99247.31;4389377;32;34744;-85
2023/07/23 05:11:46;;;;;;;6.03;3.00;;;;;;;25.26;49.79;99252.03;4389508;32;34516;-86
2023/07/23 05:14:15;;;;;;;6.97;3.20;;;;;;;25.53;49.05;99253.41;4391088;32;34071;-85
2023/07/23 05:16:42;;;;;;;6.00;2.97;;;;;;;25.65;49.06;99252.84;4377824;32;34428;-85
2023/07/23 05:19:10;;;;;;;7.22;2.97;;;;;;;25.83;48.67;99259.09;4391935;32;33943;-84
2023/07/23 05:21:38;;;;;;;5.78;2.87;;;;;;;26.17;48.65;99252.13;4377885;32;31811;-83
2023/07/23 05:24:05;;;;;;;6.47;2.87;;;;;;;26.26;48.59;99261.44;4391082;32;33812;-85
2023/07/23 05:26:33;;;;;;;5.97;2.60;;;;;;;26.20;48.99;99260.81;4391606;32;34305;-85
2023/07/23 05:29:00;;;;;;;4.93;2.42;;;;;;;26.27;48.64;99257.84;4391528;32;35043;-86
2023/07/23 05:31:27;;;;;;;5.62;3.05;;;;;;;26.19;47.81;99267.06;4391479;32;34411;-84
2023/07/23 05:33:56;;;;;;;8.02;3.45;;;;;;;26.45;47.00;99267.56;4391396;32;34793;-86
2023/07/23 05:36:23;;;;;;;7.65;3.00;;;;;;;26.37;46.61;99259.97;4391480;32;34921;-84
2023/07/23 05:38:51;;;;;;;5.68;3.05;;;;;;;26.99;47.14;99276.31;4391175;32;35066;-84
2023/07/23 05:41:18;;;;;;;5.80;2.90;;;;;;;26.88;44.31;99260.91;4378000;32;33262;-85
2023/07/23 05:43:46;;;;;;;6.80;3.47;;;;;;;26.73;43.67;99264.38;4365368;32;34142;-84
2023/07/23 05:46:13;;;;;;;6.60;3.33;;;;;;;26.22;45.30;99262.53;4391336;32;34344;-84
2023/07/23 05:48:41;;;;;;;5.87;3.28;;;;;;;26.69;43.81;99265.47;4377824;32;34148;-85
2023/07/23 05:51:09;;;;;;;7.07;3.33;;;;;;;27.14;45.09;99275.53;4391547;32;33194;-85
2023/07/23 05:53:36;;;;;;;5.95;3.00;;;;;;;27.50;43.25;99271.78;4376975;32;33725;-85
2023/07/23 05:56:05;;;;;;;7.37;3.25;;;;;;;27.73;42.94;99272.31;4391176;32;34693;-85
2023/07/23 05:58:32;;;;;;;6.07;3.10;;;;;;;27.58;42.27;99272.25;4374693;32;34291;-84
2023/07/23 06:00:59;;;;;;;5.35;2.67;;;;;;;27.47;42.18;99269.31;4377486;32;32849;-86
2023/07/23 06:03:27;;;;;;;5.35;2.60;;;;;;;27.81;41.48;99272.81;4390931;32;34336;-84
2023/07/23 06:06:10;;;;;;;6.62;2.80;;;;;;;27.70;41.43;99276.03;4378813;32;35051;-81
2023/07/23 06:08:37;;;;;;;8.40;3.17;;;;;;;27.49;42.68;99278.06;4390062;32;34162;-82
2023/07/23 06:11:05;;;;;;;5.30;2.67;;;;;;;27.31;42.63;99277.25;4391731;32;33688;-88
2023/07/23 06:13:32;;;;;;;6.40;3.47;;;;;;;27.28;44.22;99269.47;4390327;32;33978;-86
2023/07/23 06:16:00;;;;;;;7.03;3.78;;;;;;;28.01;42.90;99279.66;4363501;32;35258;-84
2023/07/23 06:18:28;;;;;;;6.68;3.28;;;;;;;27.00;43.79;99283.34;4377893;32;32784;-81
2023/07/23 06:20:56;;;;;;;6.05;2.83;;;;;;;26.97;44.53;99280.84;4391503;32;33578;-84
2023/07/23 06:23:23;;;;;;;5.03;2.75;;;;;;;27.25;42.77;99280.28;4391116;32;34858;-88
2023/07/23 06:25:54;;;;;;;8.40;3.58;;;;;;;27.73;42.08;99277.66;4391342;32;34301;-83
2023/07/23 06:28:22;;;;;;;7.65;3.55;;;;;;;26.99;43.42;99286.94;4390780;32;34807;-81
2023/07/23 06:30:54;;;;;;;6.57;3.10;;;;;;;27.35;43.44;99283.28;4377780;32;33206;-82
2023/07/23 06:33:21;;;;;;;5.97;3.00;;;;;;;27.34;43.71;99289.56;4391610;32;34921;-83
2023/07/23 06:35:49;;;;;;;5.97;3.00;;;;;;;27.53;43.68;99292.94;4377718;32;35048;-81
2023/07/23 06:38:16;;;;;;;6.32;3.03;;;;;;;27.45;42.40;99292.50;4390908;32;34975;-81
2023/07/23 06:40:46;;;;;;;5.97;3.40;;;;;;;27.91;41.44;99289.97;4391458;32;33816;-84
2023/07/23 06:43:16;;;;;;;6.47;3.22;;;;;;;27.55;43.15;99284.87;4377523;32;34241;-84
2023/07/23 06:45:44;;;;;;;8.07;3.33;;;;;;;28.00;42.08;99293.94;4377157;32;34155;-84
2023/07/23 06:48:11;;;;;;;8.07;3.25;;;;;;;27.72;42.41;99291.91;4377251;32;34073;-83
2023/07/23 06:50:39;;;;;;;13.52;3.25;;;;;;;27.87;42.57;99293.75;4365547;32;33116;-82
2023/07/23 06:53:07;;;;;;;8.75;2.90;;;;;;;27.68;42.88;99291.22;4377503;32;34061;-83
2023/07/23 06:55:55;;;;;;;7.72;3.12;;;;;;;28.00;42.08;99294.78;4390750;32;34884;-85
2023/07/23 06:58:23;;;;;;;6.07;3.08;;;;;;;28.07;40.79;99290.84;4390833;32;34999;-82
2023/07/23 07:00:50;;;;;;;5.60;3.20;;;;;;;27.71;41.94;99304.38;4390758;32;33516;-84
2023/07/23 07:03:18;;;;;;;8.07;3.12;;;;;;;27.87;41.08;99289.28;4391048;32;34029;-83
2023/07/23 07:05:46;;;;;;;8.15;3.20;;;;;;;27.51;41.99;99293.97;4391115;32;34577;-84
2023/07/23 07:08:13;;;;;;;6.40;3.45;;;;;;;27.50;41.19;99290.44;4390755;32;34936;-83
2023/07/23 07:10:41;;;;;;;5.85;2.67;;;;;;;27.62;41.59;99295.09;4377901;32;34089;-83
2023/07/23 07:13:09;;;;;;;5.97;2.78;;;;;;;27.94;40.45;99299.59;4391353;32;34133;-84
2023/07/23 07:15:36;;;;;;;6.55;2.90;;;;;;;27.50;40.27;99290.44;4377178;32;33936;-83
2023/07/23 07:18:03;;;;;;;6.70;3.20;;;;;;;27.99;40.39;99292.19;4377309;32;35161;-83
2023/07/23 07:20:31;;;;;;;7.28;3.22;;;;;;;28.57;38.99;99281.72;4390830;32;34512;-83
2023/07/23 07:22:59;;;;;;;6.55;3.10;;;;;;;28.34;38.84;99276.87;4377782;32;34141;-85
2023/07/23 07:25:26;;;;;;;6.28;2.53;;;;;;;28.47;38.92;99283.22;4391475;32;34378;-85
2023/07/23 07:27:54;;;;;;;7.12;2.92;;;;;;;28.39;38.39;99280.16;4390940;32;34879;-85
2023/07/23 07:30:21;;;;;;;6.30;2.85;;;;;;;28.05;39.75;99294.53;4377351;32;34498;-85
2023/07/23 07:32:51;;;;;;;6.57;2.95;;;;;;;28.55;39.13;99280.94;4377517;32;34328;-85
2023/07/23 07:35:19;;;;;;;8.38;3.35;;;;;;;28.77;38.42;99274.34;4376807;32;34198;-85
2023/07/23 07:37:47;;;;;;;6.78;3.33;;;;;;;27.83;38.20;99286.88;4377408;32;34122;-86
2023/07/23 07:40:14;;;;;;;5.93;2.78;;;;;;;28.09;38.91;99288.06;4391162;32;33740;-85
2023/07/23 07:42:42;;;;;;;6.03;3.20;;;;;;;28.68;37.68;99274.88;4377482;32;33720;-84
2023/07/23 07:45:10;;;;;;;7.22;2.85;;;;;;;29.15;37.51;99273.84;4390963;32;35032;-84
2023/07/23 07:47:37;;;;;;;6.47;3.05;;;;;;;28.68;37.64;99272.19;4391092;32;33838;-85
2023/07/23 07:50:07;;;;;;;5.55;2.83;;;;;;;28.66;38.59;99274.12;4391154;32;33849;-85
2023/07/23 07:52:35;;;;;;;6.65;3.25;;;;;;;28.61;38.78;99283.25;4390091;32;34664;-84
2023/07/23 07:55:02;;;;;;;6.53;3.20;;;;;;;28.53;38.33;99282.84;4390766;32;34989;-84
2023/07/23 07:57:30;;;;;;;7.03;3.67;;;;;;;28.55;39.37;99286.28;4390931;32;34369;-85
2023/07/23 08:00:01;;;;;;;6.00;3.08;;;;;;;28.12;38.35;99283.44;4373867;32;33406;-91
2023/07/23 08:02:37;;;;;;;6.28;3.30;;;;;;;28.54;38.50;99275.72;4388211;32;33636;-85
2023/07/23 08:05:06;;;;;;;5.87;2.83;;;;;;;28.53;37.50;99274.00;4390453;32;34561;-86
2023/07/23 08:07:35;;;;;;;7.03;3.15;;;;;;;28.52;37.36;99273.12;4390583;32;34880;-85
2023/07/23 08:10:03;;;;;;;5.95;3.10;;;;;;;28.39;37.73;99280.16;4390499;32;33789;-84
2023/07/23 08:12:30;;;;;;;6.35;3.00;;;;;;;28.13;37.55;99289.63;4390499;32;33731;-87
2023/07/23 08:14:58;;;;;;;5.95;3.03;;;;;;;27.99;39.18;99277.06;4390773;32;33930;-84
2023/07/23 08:17:26;;;;;;;7.37;3.40;;;;;;;28.09;39.44;99275.59;4364446;32;33133;-85
2023/07/23 08:19:54;;;;;;;5.87;3.05;;;;;;;28.55;38.82;99269.41;4389886;32;33453;-87
2023/07/23 08:22:21;;;;;;;5.07;2.72;;;;;;;28.58;38.39;99282.59;4390349;32;33667;-84
2023/07/23 08:24:50;;;;;;;5.82;3.12;;;;;;;28.64;37.92;99284.00;4390493;32;34215;-85
2023/07/23 08:27:21;;;;;;;6.47;3.00;;;;;;;28.53;37.54;99274.00;4364353;32;34161;-83
2023/07/23 08:29:51;;;;;;;6.30;3.30;;;;;;;28.36;36.98;99269.63;4364545;32;33422;-84
2023/07/23 08:32:19;;;;;;;5.68;2.97;;;;;;;28.45;37.34;99269.13;4389850;32;33952;-93
2023/07/23 08:34:48;;;;;;;4.78;2.45;;;;;;;28.37;35.98;99271.34;4377035;32;33882;-84
2023/07/23 08:37:15;;;;;;;6.28;2.40;;;;;;;28.49;36.70;99270.66;4390529;32;33690;-86
2023/07/23 08:39:43;;;;;;;6.22;3.10;;;;;;;28.75;34.99;99270.88;4390326;32;33838;-85
2023/07/23 08:42:53;;;;;;;6.87;3.70;;;;;;;28.93;35.71;99268.91;4390500;32;34690;-85
2023/07/23 08:45:42;;;;;;;9.40;3.60;;;;;;;28.56;37.19;99271.13;4366582;32;35049;-84
2023/07/23 08:48:17;;;;;;;7.20;3.45;;;;;;;28.43;37.57;99264.81;4389893;32;33650;-85
2023/07/23 08:50:47;;;;;;;5.93;2.95;;;;;;;28.83;37.84;99273.97;4390314;32;33434;-85
2023/07/23 08:53:16;;;;;;;5.50;3.00;;;;;;;28.81;36.54;99267.84;4390265;32;35558;-86
2023/07/23 08:55:46;;;;;;;5.72;2.83;;;;;;;29.08;36.70;99273.34;4363969;32;35289;-85
2023/07/23 08:58:16;;;;;;;5.78;3.10;;;;;;;28.94;36.54;99265.28;4376605;32;33394;-85
2023/07/23 09:00:45;;;;;;;5.55;2.72;;;;;;;28.88;36.41;99271.88;4389778;32;34174;-85
2023/07/23 09:03:14;;;;;;;5.65;2.80;;;;;;;29.12;35.73;99268.69;4389683;32;33810;-85
2023/07/23 09:05:42;;;;;;;5.57;2.83;;;;;;;29.16;34.27;99271.06;4376479;32;33905;-85
2023/07/23 09:08:09;;;;;;;5.70;3.00;;;;;;;28.75;35.44;99273.56;4389187;32;34212;-86
2023/07/23 09:10:38;;;;;;;5.97;2.50;;;;;;;28.92;35.71;99273.41;4389728;32;33762;-85
2023/07/23 09:13:14;;;;;;;6.72;2.53;;;;;;;28.29;36.33;99279.78;4389679;32;34765;-85
2023/07/23 09:15:43;;;;;;;7.47;2.75;;;;;;;28.78;36.53;99274.22;4376039;32;32207;-88
2023/07/23 09:18:11;;;;;;;5.28;2.53;;;;;;;28.80;36.24;99268.81;4375900;32;33981;-86
2023/07/23 09:20:38;;;;;;;5.32;2.50;;;;;;;28.96;36.00;99264.25;4376072;32;33229;-83
2023/07/23 09:23:07;;;;;;;5.65;2.47;;;;;;;29.41;34.64;99277.56;4378723;32;33363;-85
2023/07/23 09:25:35;;;;;;;8.75;3.00;;;;;;;29.24;34.13;99273.25;4403826;32;34941;-91
2023/07/23 09:28:02;;;;;;;4.65;2.20;;;;;;;29.35;34.83;99270.75;4405100;32;34092;-84
2023/07/23 09:30:30;;;;;;;5.05;2.85;;;;;;;29.44;33.83;99264.88;4391181;32;33274;-89
2023/07/23 09:32:59;;;;;;;6.40;2.85;;;;;;;29.30;33.90;99272.88;4404831;32;34646;-87
2023/07/23 09:35:30;;;;;;;5.70;2.25;;;;;;;29.23;33.71;99276.87;4405279;32;34153;-87
2023/07/23 09:37:58;;;;;;;5.37;2.62;;;;;;;29.23;34.45;99271.53;4391124;32;34360;-92
2023/07/23 09:40:36;;;;;;;5.72;2.40;;;;;;;29.75;34.89;99276.28;4404919;32;33859;-84
2023/07/23 09:43:04;;;;;;;7.28;2.72;;;;;;;29.46;33.86;99270.94;4404770;32;33588;-84
2023/07/23 09:45:36;;;;;;;5.25;2.22;;;;;;;29.50;34.88;99276.97;4404518;32;33986;-87
2023/07/23 09:48:05;;;;;;;4.93;2.42;;;;;;;29.69;34.23;99263.31;4404666;32;34491;-87
2023/07/23 09:50:50;;;;;;;5.78;2.75;;;;;;;29.89;34.53;99265.56;4392204;32;34151;-85
2023/07/23 09:53:18;;;;;;;4.87;2.47;;;;;;;29.68;33.53;99261.59;4404814;32;34947;-84
2023/07/23 09:55:45;;;;;;;5.57;2.70;;;;;;;29.95;34.22;99261.63;4378080;32;33747;-85
2023/07/23 09:58:17;;;;;;;4.80;2.40;;;;;;;29.65;33.74;99262.66;4390793;32;34232;-87
2023/07/23 10:00:46;;;;;;;5.03;2.33;;;;;;;29.91;32.34;99252.09;4406646;32;33447;-88
2023/07/23 10:03:16;;;;;;;4.93;2.45;;;;;;;30.18;32.03;99249.44;4406917;32;34556;-89
2023/07/23 10:05:45;;;;;;;4.10;2.25;;;;;;;29.98;31.93;99256.94;4407177;32;35247;-87
2023/07/23 10:08:13;;;;;;;5.68;3.05;;;;;;;29.63;32.54;99259.25;4406727;32;34521;-85
2023/07/23 10:10:40;;;;;;;5.43;2.60;;;;;;;29.90;32.89;99245.91;4393590;32;33435;-87
2023/07/23 10:13:08;;;;;;;4.62;2.33;;;;;;;29.87;32.69;99251.44;4393502;32;33418;-87
2023/07/23 10:15:36;;;;;;;7.22;2.50;;;;;;;29.78;33.09;99252.03;4393078;32;33670;-85
2023/07/23 10:18:04;;;;;;;4.95;2.37;;;;;;;29.90;33.38;99237.03;4393312;32;34964;-85
2023/07/23 10:20:32;;;;;;;5.70;2.60;;;;;;;29.96;33.03;99234.78;4406910;32;34539;-85
2023/07/23 10:23:04;;;;;;;5.22;2.40;;;;;;;29.65;32.88;99246.63;4407004;32;33538;-85
2023/07/23 10:25:35;;;;;;;5.35;2.58;;;;;;;29.77;31.08;99239.63;4393355;32;35121;-88
2023/07/23 10:28:08;;;;;;;5.43;2.37;;;;;;;30.06;30.94;99221.66;4407177;32;34745;-84
2023/07/23 10:30:39;;;;;;;6.43;2.53;;;;;;;30.11;32.68;99240.06;4406826;32;33475;-84
2023/07/23 10:33:10;;;;;;;5.22;2.37;;;;;;;29.95;31.00;99233.06;4393801;32;34074;-87
2023/07/23 10:35:58;;;;;;;5.47;2.83;;;;;;;29.96;30.71;99220.56;4393002;32;34209;-84
2023/07/23 10:38:31;;;;;;;6.75;2.65;;;;;;;30.18;32.57;99238.75;4406822;32;35068;-85
2023/07/23 10:41:00;;;;;;;5.40;2.80;;;;;;;30.10;31.18;99219.66;4406620;32;33711;-85
2023/07/23 10:43:40;;;;;;;7.18;2.30;;;;;;;30.41;31.96;99210.44;4406614;32;34177;-92
2023/07/23 10:46:17;;;;;;;5.25;2.40;;;;;;;30.61;29.81;99209.94;4406407;32;33795;-86
2023/07/23 10:48:44;;;;;;;5.40;2.37;;;;;;;30.53;30.53;99213.16;4393048;32;32755;-85
2023/07/23 10:51:13;;;;;;;7.35;2.40;;;;;;;30.51;31.10;99215.06;4406818;32;34059;-87
2023/07/23 10:54:08;;;;;;;6.20;2.95;;;;;;;30.72;31.40;99214.53;4380478;32;33240;-84
2023/07/23 10:56:36;;;;;;;5.55;2.72;;;;;;;30.85;30.53;99212.75;4406422;32;34805;-85
2023/07/23 10:59:13;;;;;;;5.30;2.40;;;;;;;30.76;30.92;99213.38;4392824;32;34238;-85
2023/07/23 11:01:45;;;;;;;5.20;2.45;;;;;;;30.51;30.82;99204.38;4406641;32;33357;-93
2023/07/23 11:04:17;;;;;;;5.35;2.30;;;;;;;30.45;31.28;99198.56;4392850;32;33633;-85
2023/07/23 11:07:00;;;;;;;5.45;2.45;;;;;;;30.47;31.51;99205.53;4393042;32;34065;-87
2023/07/23 11:09:33;;;;;;;4.93;2.00;;;;;;;30.56;30.82;99195.16;4406323;32;33953;-87
2023/07/23 11:12:03;;;;;;;4.78;2.35;;;;;;;30.75;31.26;99184.91;4405852;32;33570;-92
2023/07/23 11:14:32;;;;;;;4.78;2.10;;;;;;;30.86;31.60;99197.53;4392763;32;35018;-86
2023/07/23 11:17:01;;;;;;;5.30;2.42;;;;;;;30.98;31.33;99189.50;4392858;32;33624;-90
2023/07/23 11:19:30;;;;;;;4.65;2.15;;;;;;;31.14;31.77;99197.31;4393029;32;34331;-88
2023/07/23 11:22:03;;;;;;;5.57;2.70;;;;;;;31.08;30.95;99187.03;4406351;32;33301;-87
2023/07/23 11:24:32;;;;;;;4.80;2.12;;;;;;;31.16;31.17;99183.81;4406850;32;33440;-85
2023/07/23 11:27:01;;;;;;;5.53;2.58;;;;;;;30.81;31.70;99184.50;4406410;32;33972;-92
2023/07/23 11:29:30;;;;;;;4.78;2.40;;;;;;;30.92;31.26;99175.72;4406468;32;34280;-85
2023/07/23 11:32:03;;;;;;;4.40;2.05;;;;;;;30.42;32.24;99167.56;4398678;32;34519;-90
2023/07/23 11:34:31;;;;;;;5.12;2.17;;;;;;;30.62;32.62;99173.34;4391481;32;33614;-91
2023/07/23 11:36:59;;;;;;;6.15;2.70;;;;;;;30.64;31.79;99160.69;4377633;32;34940;-86
2023/07/23 11:39:27;;;;;;;5.95;2.62;;;;;;;30.74;31.06;99169.81;4377586;32;33887;-86
2023/07/23 11:41:54;;;;;;;5.00;2.30;;;;;;;30.69;30.88;99164.78;4390687;32;34505;-86